Maoming, China
Current Conditions -  °F | °C
As of 10:00 PM on Monday 22 Dec 2014 (Local Time) from ZJHK Reporting Station
Broken Clouds Broken Clouds  
Wind Chill: 59°   Ceiling: 2000
Heat Index: 59°   Visibility: 4mi
Dew Point: 52°   Wind: 4mph
Humidity: 77%   Direction: 20°NNE
Pressure: 30.15"   Gusts: NA
Location:  21.92°N, 110.87°E
Report Text: ZJHK 221400Z 02002MPS 6000 BKN020 15/11 Q1021 NOSIG
Loading
Personal Weather Stations






























Interactive Weather Map New forecast layout! Learn more

10-Day Weather Forecast

Advertisements
Track Severe Weather on mobile